Airfield :
LOGIN :

Register | Disclaimer

   EN    FR    IT 

 










Legend :    VFR   Marginal VFR   IFR   Intensive IFR   Very Intensive IFR
Visi :
Ceiling :
>= 8 km
>= 3000ft
5 to 8 km
1000 to 3000 ft
1500m to 5 km
500 to 1000 ft
800 to 1500m
200 to 500 ft
< 800m
< 200 ft
Symbols :   Thunderstorms  Fog  Heavy snow  Heavy precipitations  Wind > 20 kt
SIGMETs :     Misc.  Thunderstorms  Icing  Turbulence  Mountain Waves  Volcanic Ashes






- Airport Elevation : 2540 ft
- IATA code : HRM


DAFH - Hassi R'Mel

CURRENT METAR :
  • 241800Z 22012KT 9000 SCT030CB SCT033 25/12 Q1013

EXPIRED METARs :
  • 241700Z 23014KT 8000 -RA SCT030CB SCT033 24/15 Q1013 RETS
  • 241600Z 22014KT 9999 SCT030TCU SCT046 35/03 Q1010
  • 241500Z 24012KT 9999 FEW046 36/02 Q1010

TAF TAF DAFH
Valid from the 24 at 18:00 until the 25 at 03:00 UTC


241700Z 2418/2503 22015KT 8000 SCT033
TEMPO 2418/2422 VRB15G30KT 4000 -TSRA SCT030CB



MET'MAP, your aeronautical weather chart ! - Copyright ORBIFLY December 2007 - Disclaimer

ORBIFLY MET'MAP TEAM :

Programming & Development : Alexandra Zaïnal
Original concept : Baudouin d'Aumeries
Technical & hardware support : Manuel Goepfert
Assistance : Marc-Olivier Méhu

Contact : metmap@orbifly.com




SOURCES & CREDITS :

   NOAA